sensor_id;sensor_type;location;lat;lon;timestamp;temperature;humidity
69932;DHT22;57243;52.064;5.116;2022-07-31T00:00:30;24.10;56.00
69932;DHT22;57243;52.064;5.116;2022-07-31T00:02:57;24.10;55.90
69932;DHT22;57243;52.064;5.116;2022-07-31T00:05:23;24.10;56.00
69932;DHT22;57243;52.064;5.116;2022-07-31T00:07:50;24.10;55.90
69932;DHT22;57243;52.064;5.116;2022-07-31T00:10:17;24.10;56.00
69932;DHT22;57243;52.064;5.116;2022-07-31T00:12:42;24.10;55.90
69932;DHT22;57243;52.064;5.116;2022-07-31T00:15:09;24.10;55.80
69932;DHT22;57243;52.064;5.116;2022-07-31T00:17:37;24.10;55.90
69932;DHT22;57243;52.064;5.116;2022-07-31T00:20:03;24.10;55.80
69932;DHT22;57243;52.064;5.116;2022-07-31T00:22:29;24.10;55.90
69932;DHT22;57243;52.064;5.116;2022-07-31T00:24:55;24.10;55.80
69932;DHT22;57243;52.064;5.116;2022-07-31T00:27:21;24.10;55.90
69932;DHT22;57243;52.064;5.116;2022-07-31T00:29:48;24.10;55.80
69932;DHT22;57243;52.064;5.116;2022-07-31T00:32:13;24.10;55.80
69932;DHT22;57243;52.064;5.116;2022-07-31T00:34:40;24.10;55.80
69932;DHT22;57243;52.064;5.116;2022-07-31T00:37:07;24.10;55.80
69932;DHT22;57243;52.064;5.116;2022-07-31T00:39:33;24.10;55.70
69932;DHT22;57243;52.064;5.116;2022-07-31T00:41:58;24.00;55.80
69932;DHT22;57243;52.064;5.116;2022-07-31T00:44:24;24.00;55.70
69932;DHT22;57243;52.064;5.116;2022-07-31T00:46:50;24.00;55.60
69932;DHT22;57243;52.064;5.116;2022-07-31T00:49:16;24.00;55.70
69932;DHT22;57243;52.064;5.116;2022-07-31T00:51:41;24.00;55.60
69932;DHT22;57243;52.064;5.116;2022-07-31T00:54:08;24.10;55.70
69932;DHT22;57243;52.064;5.116;2022-07-31T00:56:34;24.10;55.70
69932;DHT22;57243;52.064;5.116;2022-07-31T00:58:59;24.10;55.70
69932;DHT22;57243;52.064;5.116;2022-07-31T01:01:26;24.00;55.60
69932;DHT22;57243;52.064;5.116;2022-07-31T01:03:52;24.00;55.70
69932;DHT22;57243;52.064;5.116;2022-07-31T01:06:18;24.00;55.70
69932;DHT22;57243;52.064;5.116;2022-07-31T01:08:44;24.10;55.60
69932;DHT22;57243;52.064;5.116;2022-07-31T01:11:12;24.00;55.60
69932;DHT22;57243;52.064;5.116;2022-07-31T01:13:54;24.10;55.60
69932;DHT22;57243;52.064;5.116;2022-07-31T01:16:23;24.00;55.60
69932;DHT22;57243;52.064;5.116;2022-07-31T01:18:51;24.10;55.70
69932;DHT22;57243;52.064;5.116;2022-07-31T01:21:30;24.10;55.40
69932;DHT22;57243;52.064;5.116;2022-07-31T01:27:36;24.10;55.50
69932;DHT22;57243;52.064;5.116;2022-07-31T01:29:43;24.00;55.20
69932;DHT22;57243;52.064;5.116;2022-07-31T01:32:17;24.00;55.00
69932;DHT22;57243;52.064;5.116;2022-07-31T01:35:01;24.00;54.90
69932;DHT22;57243;52.064;5.116;2022-07-31T01:37:46;24.00;54.90
69932;DHT22;57243;52.064;5.116;2022-07-31T01:41:00;24.00;54.80
69932;DHT22;57243;52.064;5.116;2022-07-31T01:43:32;24.00;54.80
69932;DHT22;57243;52.064;5.116;2022-07-31T01:45:58;24.00;54.80
69932;DHT22;57243;52.064;5.116;2022-07-31T01:48:25;24.00;54.80
69932;DHT22;57243;52.064;5.116;2022-07-31T01:50:54;24.00;54.70
69932;DHT22;57243;52.064;5.116;2022-07-31T01:53:22;24.00;54.60
69932;DHT22;57243;52.064;5.116;2022-07-31T01:55:51;24.00;54.70
69932;DHT22;57243;52.064;5.116;2022-07-31T01:58:18;24.00;54.50
69932;DHT22;57243;52.064;5.116;2022-07-31T02:00:46;24.00;54.50
69932;DHT22;57243;52.064;5.116;2022-07-31T02:03:12;24.00;54.40
69932;DHT22;57243;52.064;5.116;2022-07-31T02:05:41;24.00;54.30
69932;DHT22;57243;52.064;5.116;2022-07-31T02:08:08;24.00;54.30
69932;DHT22;57243;52.064;5.116;2022-07-31T02:10:35;24.00;54.30
69932;DHT22;57243;52.064;5.116;2022-07-31T02:13:02;24.00;54.50
69932;DHT22;57243;52.064;5.116;2022-07-31T02:15:30;24.00;54.60
69932;DHT22;57243;52.064;5.116;2022-07-31T02:17:59;24.00;54.50
69932;DHT22;57243;52.064;5.116;2022-07-31T02:20:25;24.00;54.60
69932;DHT22;57243;52.064;5.116;2022-07-31T02:22:52;24.00;54.50
69932;DHT22;57243;52.064;5.116;2022-07-31T02:25:19;24.00;54.70
69932;DHT22;57243;52.064;5.116;2022-07-31T02:27:45;24.00;54.70
69932;DHT22;57243;52.064;5.116;2022-07-31T02:30:12;24.00;54.80
69932;DHT22;57243;52.064;5.116;2022-07-31T02:32:38;24.00;54.80
69932;DHT22;57243;52.064;5.116;2022-07-31T02:35:06;24.00;54.60
69932;DHT22;57243;52.064;5.116;2022-07-31T02:37:37;24.00;54.80
69932;DHT22;57243;52.064;5.116;2022-07-31T02:40:04;24.00;54.90
69932;DHT22;57243;52.064;5.116;2022-07-31T02:42:30;24.00;54.90
69932;DHT22;57243;52.064;5.116;2022-07-31T02:44:56;24.00;54.80
69932;DHT22;57243;52.064;5.116;2022-07-31T02:47:23;24.00;54.80
69932;DHT22;57243;52.064;5.116;2022-07-31T02:49:49;24.00;54.90
69932;DHT22;57243;52.064;5.116;2022-07-31T02:52:15;24.00;54.90
69932;DHT22;57243;52.064;5.116;2022-07-31T02:54:42;24.00;55.00
69932;DHT22;57243;52.064;5.116;2022-07-31T02:57:09;24.00;55.00
69932;DHT22;57243;52.064;5.116;2022-07-31T02:59:38;24.00;54.80
69932;DHT22;57243;52.064;5.116;2022-07-31T03:02:05;24.00;55.00
69932;DHT22;57243;52.064;5.116;2022-07-31T03:04:31;24.00;55.10
69932;DHT22;57243;52.064;5.116;2022-07-31T03:06:57;24.00;55.10
69932;DHT22;57243;52.064;5.116;2022-07-31T03:09:23;24.00;55.00
69932;DHT22;57243;52.064;5.116;2022-07-31T03:11:49;24.00;55.00
69932;DHT22;57243;52.064;5.116;2022-07-31T03:14:15;24.00;55.00
69932;DHT22;57243;52.064;5.116;2022-07-31T03:16:43;24.00;55.00
69932;DHT22;57243;52.064;5.116;2022-07-31T03:19:10;24.00;55.10
69932;DHT22;57243;52.064;5.116;2022-07-31T03:21:36;24.00;55.10
69932;DHT22;57243;52.064;5.116;2022-07-31T03:24:03;24.00;55.20
69932;DHT22;57243;52.064;5.116;2022-07-31T03:26:29;24.00;55.10
69932;DHT22;57243;52.064;5.116;2022-07-31T03:28:55;24.00;55.20
69932;DHT22;57243;52.064;5.116;2022-07-31T03:31:21;24.00;55.20
69932;DHT22;57243;52.064;5.116;2022-07-31T03:33:46;24.00;55.10
69932;DHT22;57243;52.064;5.116;2022-07-31T03:36:12;24.00;55.10
69932;DHT22;57243;52.064;5.116;2022-07-31T03:38:38;24.00;55.30
69932;DHT22;57243;52.064;5.116;2022-07-31T03:41:04;24.00;55.20
69932;DHT22;57243;52.064;5.116;2022-07-31T03:43:30;24.00;55.30
69932;DHT22;57243;52.064;5.116;2022-07-31T03:46:00;24.00;55.20
69932;DHT22;57243;52.064;5.116;2022-07-31T03:48:27;24.00;55.40
69932;DHT22;57243;52.064;5.116;2022-07-31T03:50:54;24.00;55.30
69932;DHT22;57243;52.064;5.116;2022-07-31T03:53:20;24.00;55.30
69932;DHT22;57243;52.064;5.116;2022-07-31T03:55:46;24.00;55.30
69932;DHT22;57243;52.064;5.116;2022-07-31T03:58:13;24.00;55.30
69932;DHT22;57243;52.064;5.116;2022-07-31T04:00:40;24.00;55.20
69932;DHT22;57243;52.064;5.116;2022-07-31T04:03:09;24.00;55.20
69932;DHT22;57243;52.064;5.116;2022-07-31T04:05:35;24.00;55.20
69932;DHT22;57243;52.064;5.116;2022-07-31T04:08:02;24.00;55.30
69932;DHT22;57243;52.064;5.116;2022-07-31T04:10:27;24.00;55.20
69932;DHT22;57243;52.064;5.116;2022-07-31T04:12:53;24.00;55.20
69932;DHT22;57243;52.064;5.116;2022-07-31T04:15:19;24.00;55.30
69932;DHT22;57243;52.064;5.116;2022-07-31T04:17:44;24.00;55.30
69932;DHT22;57243;52.064;5.116;2022-07-31T04:20:10;24.00;55.20
69932;DHT22;57243;52.064;5.116;2022-07-31T04:22:36;24.00;55.30
69932;DHT22;57243;52.064;5.116;2022-07-31T04:25:03;24.00;55.30
69932;DHT22;57243;52.064;5.116;2022-07-31T04:27:29;24.00;55.30
69932;DHT22;57243;52.064;5.116;2022-07-31T04:29:55;24.00;55.30
69932;DHT22;57243;52.064;5.116;2022-07-31T04:32:22;24.00;55.30
69932;DHT22;57243;52.064;5.116;2022-07-31T04:34:49;24.00;55.30
69932;DHT22;57243;52.064;5.116;2022-07-31T04:37:14;24.00;55.30
69932;DHT22;57243;52.064;5.116;2022-07-31T04:39:41;24.00;55.40
69932;DHT22;57243;52.064;5.116;2022-07-31T04:42:07;24.00;55.30
69932;DHT22;57243;52.064;5.116;2022-07-31T04:44:34;24.00;55.30
69932;DHT22;57243;52.064;5.116;2022-07-31T04:47:01;24.00;55.50
69932;DHT22;57243;52.064;5.116;2022-07-31T04:49:27;24.00;55.40
69932;DHT22;57243;52.064;5.116;2022-07-31T04:51:53;24.00;55.40
69932;DHT22;57243;52.064;5.116;2022-07-31T04:54:18;24.00;55.50
69932;DHT22;57243;52.064;5.116;2022-07-31T04:56:44;24.00;55.60
69932;DHT22;57243;52.064;5.116;2022-07-31T04:59:15;24.00;55.60
69932;DHT22;57243;52.064;5.116;2022-07-31T05:01:42;24.00;55.70
69932;DHT22;57243;52.064;5.116;2022-07-31T05:04:09;24.00;55.70
69932;DHT22;57243;52.064;5.116;2022-07-31T05:06:39;24.00;55.60
69932;DHT22;57243;52.064;5.116;2022-07-31T05:09:07;24.00;55.60
69932;DHT22;57243;52.064;5.116;2022-07-31T05:11:34;24.00;55.60
69932;DHT22;57243;52.064;5.116;2022-07-31T05:14:01;24.00;55.60
69932;DHT22;57243;52.064;5.116;2022-07-31T05:16:28;24.00;55.70
69932;DHT22;57243;52.064;5.116;2022-07-31T05:18:54;24.00;55.60
69932;DHT22;57243;52.064;5.116;2022-07-31T05:21:21;24.00;55.80
69932;DHT22;57243;52.064;5.116;2022-07-31T05:23:48;24.00;55.80
69932;DHT22;57243;52.064;5.116;2022-07-31T05:26:16;24.00;55.70
69932;DHT22;57243;52.064;5.116;2022-07-31T05:28:42;24.00;55.90
69932;DHT22;57243;52.064;5.116;2022-07-31T05:31:08;24.00;55.80
69932;DHT22;57243;52.064;5.116;2022-07-31T05:33:35;24.00;55.90
69932;DHT22;57243;52.064;5.116;2022-07-31T05:36:01;24.00;56.00
69932;DHT22;57243;52.064;5.116;2022-07-31T05:38:27;24.00;55.90
69932;DHT22;57243;52.064;5.116;2022-07-31T05:40:53;24.00;55.80
69932;DHT22;57243;52.064;5.116;2022-07-31T05:43:19;24.00;55.80
69932;DHT22;57243;52.064;5.116;2022-07-31T05:45:45;24.00;55.80
69932;DHT22;57243;52.064;5.116;2022-07-31T05:48:16;24.00;55.90
69932;DHT22;57243;52.064;5.116;2022-07-31T05:50:44;24.00;56.00
69932;DHT22;57243;52.064;5.116;2022-07-31T05:53:10;24.00;56.30
69932;DHT22;57243;52.064;5.116;2022-07-31T05:55:40;24.00;56.10
69932;DHT22;57243;52.064;5.116;2022-07-31T05:58:06;24.00;56.20
69932;DHT22;57243;52.064;5.116;2022-07-31T06:00:32;24.00;56.30
69932;DHT22;57243;52.064;5.116;2022-07-31T06:02:57;24.00;56.40
69932;DHT22;57243;52.064;5.116;2022-07-31T06:05:27;24.00;56.50
69932;DHT22;57243;52.064;5.116;2022-07-31T06:07:58;24.00;56.40
69932;DHT22;57243;52.064;5.116;2022-07-31T06:10:24;24.00;56.60
69932;DHT22;57243;52.064;5.116;2022-07-31T06:12:50;24.00;56.70
69932;DHT22;57243;52.064;5.116;2022-07-31T06:15:16;24.00;56.60
69932;DHT22;57243;52.064;5.116;2022-07-31T06:17:42;24.00;56.50
69932;DHT22;57243;52.064;5.116;2022-07-31T06:20:09;24.00;56.40
69932;DHT22;57243;52.064;5.116;2022-07-31T06:22:35;24.00;56.30
69932;DHT22;57243;52.064;5.116;2022-07-31T06:25:01;24.00;56.60
69932;DHT22;57243;52.064;5.116;2022-07-31T06:27:27;24.00;56.50
69932;DHT22;57243;52.064;5.116;2022-07-31T06:29:53;24.00;57.00
69932;DHT22;57243;52.064;5.116;2022-07-31T06:32:20;24.10;57.00
69932;DHT22;57243;52.064;5.116;2022-07-31T06:34:46;24.10;56.80
69932;DHT22;57243;52.064;5.116;2022-07-31T06:37:11;24.10;56.40
69932;DHT22;57243;52.064;5.116;2022-07-31T06:39:37;24.10;56.90
69932;DHT22;57243;52.064;5.116;2022-07-31T06:42:03;24.10;56.90
69932;DHT22;57243;52.064;5.116;2022-07-31T06:44:29;24.10;57.50
69932;DHT22;57243;52.064;5.116;2022-07-31T06:46:55;24.10;57.30
69932;DHT22;57243;52.064;5.116;2022-07-31T06:49:21;24.10;57.60
69932;DHT22;57243;52.064;5.116;2022-07-31T06:51:46;24.10;57.30
69932;DHT22;57243;52.064;5.116;2022-07-31T06:54:12;24.10;57.80
69932;DHT22;57243;52.064;5.116;2022-07-31T06:56:38;24.10;57.60
69932;DHT22;57243;52.064;5.116;2022-07-31T06:59:05;24.10;58.00
69932;DHT22;57243;52.064;5.116;2022-07-31T07:01:31;24.10;58.10
69932;DHT22;57243;52.064;5.116;2022-07-31T07:03:58;24.10;58.40
69932;DHT22;57243;52.064;5.116;2022-07-31T07:06:24;24.10;58.60
69932;DHT22;57243;52.064;5.116;2022-07-31T07:08:50;24.10;58.60
69932;DHT22;57243;52.064;5.116;2022-07-31T07:11:16;24.10;58.60
69932;DHT22;57243;52.064;5.116;2022-07-31T07:13:42;24.10;58.60
69932;DHT22;57243;52.064;5.116;2022-07-31T07:16:08;24.20;58.60
69932;DHT22;57243;52.064;5.116;2022-07-31T07:18:33;24.20;58.50
69932;DHT22;57243;52.064;5.116;2022-07-31T07:20:59;24.20;58.60
69932;DHT22;57243;52.064;5.116;2022-07-31T07:23:24;24.20;58.30
69932;DHT22;57243;52.064;5.116;2022-07-31T07:25:50;24.20;58.30
69932;DHT22;57243;52.064;5.116;2022-07-31T07:28:16;24.30;58.50
69932;DHT22;57243;52.064;5.116;2022-07-31T07:30:42;24.20;58.50
69932;DHT22;57243;52.064;5.116;2022-07-31T07:33:08;24.20;58.50
69932;DHT22;57243;52.064;5.116;2022-07-31T07:35:34;24.20;58.60
69932;DHT22;57243;52.064;5.116;2022-07-31T07:38:02;24.20;58.40
69932;DHT22;57243;52.064;5.116;2022-07-31T07:40:28;24.20;58.50
69932;DHT22;57243;52.064;5.116;2022-07-31T07:42:54;24.20;58.50
69932;DHT22;57243;52.064;5.116;2022-07-31T07:45:20;24.20;58.40
69932;DHT22;57243;52.064;5.116;2022-07-31T07:47:45;24.20;58.50
69932;DHT22;57243;52.064;5.116;2022-07-31T07:50:11;24.20;58.50
69932;DHT22;57243;52.064;5.116;2022-07-31T07:52:37;24.20;58.40
69932;DHT22;57243;52.064;5.116;2022-07-31T07:55:05;24.20;58.50
69932;DHT22;57243;52.064;5.116;2022-07-31T07:57:34;24.20;58.40
69932;DHT22;57243;52.064;5.116;2022-07-31T08:00:02;24.20;58.40
69932;DHT22;57243;52.064;5.116;2022-07-31T08:02:29;24.20;58.30
69932;DHT22;57243;52.064;5.116;2022-07-31T08:04:55;24.20;58.20
69932;DHT22;57243;52.064;5.116;2022-07-31T08:07:28;24.20;58.00
69932;DHT22;57243;52.064;5.116;2022-07-31T08:09:55;24.20;58.10
69932;DHT22;57243;52.064;5.116;2022-07-31T08:12:20;24.20;58.20
69932;DHT22;57243;52.064;5.116;2022-07-31T08:14:46;24.20;58.10
69932;DHT22;57243;52.064;5.116;2022-07-31T08:17:12;24.20;58.20
69932;DHT22;57243;52.064;5.116;2022-07-31T08:19:38;24.10;58.10
69932;DHT22;57243;52.064;5.116;2022-07-31T08:22:04;24.20;58.10
69932;DHT22;57243;52.064;5.116;2022-07-31T08:24:29;24.20;58.20
69932;DHT22;57243;52.064;5.116;2022-07-31T08:26:55;24.20;58.10
69932;DHT22;57243;52.064;5.116;2022-07-31T08:29:39;24.10;58.30
69932;DHT22;57243;52.064;5.116;2022-07-31T08:32:05;24.10;57.90
69932;DHT22;57243;52.064;5.116;2022-07-31T08:34:31;24.20;58.00
69932;DHT22;57243;52.064;5.116;2022-07-31T08:36:57;24.20;58.10
69932;DHT22;57243;52.064;5.116;2022-07-31T08:39:22;24.20;58.10
69932;DHT22;57243;52.064;5.116;2022-07-31T08:41:48;24.20;58.30
69932;DHT22;57243;52.064;5.116;2022-07-31T08:44:14;24.20;58.20
69932;DHT22;57243;52.064;5.116;2022-07-31T08:46:39;24.20;58.20
69932;DHT22;57243;52.064;5.116;2022-07-31T08:49:07;24.20;58.20
69932;DHT22;57243;52.064;5.116;2022-07-31T08:51:37;24.20;58.20
69932;DHT22;57243;52.064;5.116;2022-07-31T08:54:08;24.20;58.80
69932;DHT22;57243;52.064;5.116;2022-07-31T08:56:35;24.20;58.40
69932;DHT22;57243;52.064;5.116;2022-07-31T08:59:02;24.20;58.40
69932;DHT22;57243;52.064;5.116;2022-07-31T09:01:28;24.20;58.20
69932;DHT22;57243;52.064;5.116;2022-07-31T09:03:54;24.20;58.30
69932;DHT22;57243;52.064;5.116;2022-07-31T09:06:20;24.20;58.40
69932;DHT22;57243;52.064;5.116;2022-07-31T09:08:45;24.20;58.40
69932;DHT22;57243;52.064;5.116;2022-07-31T09:11:13;24.20;58.20
69932;DHT22;57243;52.064;5.116;2022-07-31T09:13:40;24.20;58.30
69932;DHT22;57243;52.064;5.116;2022-07-31T09:16:06;24.20;58.40
69932;DHT22;57243;52.064;5.116;2022-07-31T09:18:32;24.20;58.50
69932;DHT22;57243;52.064;5.116;2022-07-31T09:21:02;24.20;58.50
69932;DHT22;57243;52.064;5.116;2022-07-31T09:23:29;24.20;58.50
69932;DHT22;57243;52.064;5.116;2022-07-31T09:26:05;24.20;58.60
69932;DHT22;57243;52.064;5.116;2022-07-31T09:28:35;24.20;58.70
69932;DHT22;57243;52.064;5.116;2022-07-31T09:31:02;24.20;58.60
69932;DHT22;57243;52.064;5.116;2022-07-31T09:33:28;24.20;58.50
69932;DHT22;57243;52.064;5.116;2022-07-31T09:35:55;24.20;58.60
69932;DHT22;57243;52.064;5.116;2022-07-31T09:38:31;24.20;58.50
69932;DHT22;57243;52.064;5.116;2022-07-31T09:41:14;24.20;58.40
69932;DHT22;57243;52.064;5.116;2022-07-31T09:43:40;24.20;58.40
69932;DHT22;57243;52.064;5.116;2022-07-31T09:46:07;24.20;59.10
69932;DHT22;57243;52.064;5.116;2022-07-31T09:48:34;24.20;59.00
69932;DHT22;57243;52.064;5.116;2022-07-31T09:51:05;24.20;58.90
69932;DHT22;57243;52.064;5.116;2022-07-31T09:53:48;24.20;59.50
69932;DHT22;57243;52.064;5.116;2022-07-31T09:56:34;24.30;59.80
69932;DHT22;57243;52.064;5.116;2022-07-31T09:59:00;24.30;59.50
69932;DHT22;57243;52.064;5.116;2022-07-31T10:01:26;24.20;59.50
69932;DHT22;57243;52.064;5.116;2022-07-31T10:03:55;24.30;59.60
69932;DHT22;57243;52.064;5.116;2022-07-31T10:06:24;24.30;59.60
69932;DHT22;57243;52.064;5.116;2022-07-31T10:08:54;24.30;59.50
69932;DHT22;57243;52.064;5.116;2022-07-31T10:11:21;24.30;59.80
69932;DHT22;57243;52.064;5.116;2022-07-31T10:13:48;24.30;59.80
69932;DHT22;57243;52.064;5.116;2022-07-31T10:16:15;24.30;59.90
69932;DHT22;57243;52.064;5.116;2022-07-31T10:18:48;24.20;60.00
69932;DHT22;57243;52.064;5.116;2022-07-31T10:21:17;24.30;59.90
69932;DHT22;57243;52.064;5.116;2022-07-31T10:23:47;24.30;60.20
69932;DHT22;57243;52.064;5.116;2022-07-31T10:26:12;24.30;60.50
69932;DHT22;57243;52.064;5.116;2022-07-31T10:28:38;24.30;60.60
69932;DHT22;57243;52.064;5.116;2022-07-31T10:31:04;24.30;60.70
69932;DHT22;57243;52.064;5.116;2022-07-31T10:33:31;24.30;60.70
69932;DHT22;57243;52.064;5.116;2022-07-31T10:36:10;24.30;60.60
69932;DHT22;57243;52.064;5.116;2022-07-31T10:44:12;24.30;61.10
69932;DHT22;57243;52.064;5.116;2022-07-31T10:46:41;24.30;61.00
69932;DHT22;57243;52.064;5.116;2022-07-31T10:49:06;24.30;61.10
69932;DHT22;57243;52.064;5.116;2022-07-31T10:51:32;24.30;60.90
69932;DHT22;57243;52.064;5.116;2022-07-31T10:54:03;24.30;61.30
69932;DHT22;57243;52.064;5.116;2022-07-31T10:56:39;24.30;61.30
69932;DHT22;57243;52.064;5.116;2022-07-31T10:59:06;24.30;61.30
69932;DHT22;57243;52.064;5.116;2022-07-31T11:01:32;24.30;61.10
69932;DHT22;57243;52.064;5.116;2022-07-31T11:03:59;24.30;61.20
69932;DHT22;57243;52.064;5.116;2022-07-31T11:06:40;24.30;61.20
69932;DHT22;57243;52.064;5.116;2022-07-31T11:09:06;24.30;61.10
69932;DHT22;57243;52.064;5.116;2022-07-31T11:11:33;24.40;61.10
69932;DHT22;57243;52.064;5.116;2022-07-31T11:13:59;24.30;60.90
69932;DHT22;57243;52.064;5.116;2022-07-31T11:16:26;24.40;61.30
69932;DHT22;57243;52.064;5.116;2022-07-31T11:18:56;24.40;61.20
69932;DHT22;57243;52.064;5.116;2022-07-31T11:21:33;24.30;61.40
69932;DHT22;57243;52.064;5.116;2022-07-31T11:23:59;24.40;61.40
69932;DHT22;57243;52.064;5.116;2022-07-31T11:26:25;24.40;61.30
69932;DHT22;57243;52.064;5.116;2022-07-31T11:28:51;24.40;61.60
69932;DHT22;57243;52.064;5.116;2022-07-31T11:31:17;24.40;61.60
69932;DHT22;57243;52.064;5.116;2022-07-31T11:33:45;24.40;61.80
69932;DHT22;57243;52.064;5.116;2022-07-31T11:36:16;24.40;61.70
69932;DHT22;57243;52.064;5.116;2022-07-31T11:38:44;24.40;61.50
69932;DHT22;57243;52.064;5.116;2022-07-31T11:41:10;24.40;61.10
69932;DHT22;57243;52.064;5.116;2022-07-31T11:43:41;24.30;61.00
69932;DHT22;57243;52.064;5.116;2022-07-31T11:46:07;24.30;61.00
69932;DHT22;57243;52.064;5.116;2022-07-31T11:48:37;24.30;60.90
69932;DHT22;57243;52.064;5.116;2022-07-31T11:51:03;24.30;61.10
69932;DHT22;57243;52.064;5.116;2022-07-31T11:53:29;24.30;61.00
69932;DHT22;57243;52.064;5.116;2022-07-31T11:55:59;24.30;61.30
69932;DHT22;57243;52.064;5.116;2022-07-31T11:58:27;24.30;61.00
69932;DHT22;57243;52.064;5.116;2022-07-31T12:00:55;24.30;61.40
69932;DHT22;57243;52.064;5.116;2022-07-31T12:03:31;24.30;61.40
69932;DHT22;57243;52.064;5.116;2022-07-31T12:05:58;24.30;61.50
69932;DHT22;57243;52.064;5.116;2022-07-31T12:08:25;24.30;61.70
69932;DHT22;57243;52.064;5.116;2022-07-31T12:10:52;24.40;61.40
69932;DHT22;57243;52.064;5.116;2022-07-31T12:13:20;24.40;61.60
69932;DHT22;57243;52.064;5.116;2022-07-31T12:16:07;24.40;61.60
69932;DHT22;57243;52.064;5.116;2022-07-31T12:18:48;24.40;61.60
69932;DHT22;57243;52.064;5.116;2022-07-31T12:21:15;24.40;61.70
69932;DHT22;57243;52.064;5.116;2022-07-31T12:23:47;24.40;61.50
69932;DHT22;57243;52.064;5.116;2022-07-31T12:29:07;24.40;62.00
69932;DHT22;57243;52.064;5.116;2022-07-31T12:31:52;24.40;61.60
69932;DHT22;57243;52.064;5.116;2022-07-31T12:37:11;24.40;61.90
69932;DHT22;57243;52.064;5.116;2022-07-31T12:39:51;24.40;63.20
69932;DHT22;57243;52.064;5.116;2022-07-31T12:44:47;24.30;63.60
69932;DHT22;57243;52.064;5.116;2022-07-31T12:47:39;24.30;63.90
69932;DHT22;57243;52.064;5.116;2022-07-31T12:50:06;24.30;64.00
69932;DHT22;57243;52.064;5.116;2022-07-31T12:52:32;24.20;63.80
69932;DHT22;57243;52.064;5.116;2022-07-31T12:55:01;24.20;63.70
69932;DHT22;57243;52.064;5.116;2022-07-31T12:57:30;24.20;64.30
69932;DHT22;57243;52.064;5.116;2022-07-31T12:59:56;24.20;63.90
69932;DHT22;57243;52.064;5.116;2022-07-31T13:02:22;24.20;63.90
69932;DHT22;57243;52.064;5.116;2022-07-31T13:04:47;24.20;64.20
69932;DHT22;57243;52.064;5.116;2022-07-31T13:07:14;24.20;63.90
69932;DHT22;57243;52.064;5.116;2022-07-31T13:09:40;24.20;64.00
69932;DHT22;57243;52.064;5.116;2022-07-31T13:12:08;24.20;64.20
69932;DHT22;57243;52.064;5.116;2022-07-31T13:14:34;24.20;64.00
69932;DHT22;57243;52.064;5.116;2022-07-31T13:17:00;24.20;64.40
69932;DHT22;57243;52.064;5.116;2022-07-31T13:19:25;24.10;63.90
69932;DHT22;57243;52.064;5.116;2022-07-31T13:21:55;24.20;63.90
69932;DHT22;57243;52.064;5.116;2022-07-31T13:24:21;24.10;63.80
69932;DHT22;57243;52.064;5.116;2022-07-31T13:26:48;24.10;63.90
69932;DHT22;57243;52.064;5.116;2022-07-31T13:29:15;24.10;63.80
69932;DHT22;57243;52.064;5.116;2022-07-31T13:31:41;24.10;63.90
69932;DHT22;57243;52.064;5.116;2022-07-31T13:34:08;24.10;63.90
69932;DHT22;57243;52.064;5.116;2022-07-31T13:36:34;24.10;63.80
69932;DHT22;57243;52.064;5.116;2022-07-31T13:39:01;24.10;63.50
69932;DHT22;57243;52.064;5.116;2022-07-31T13:41:27;24.10;63.70
69932;DHT22;57243;52.064;5.116;2022-07-31T13:43:56;24.10;63.50
69932;DHT22;57243;52.064;5.116;2022-07-31T13:46:23;24.10;63.60
69932;DHT22;57243;52.064;5.116;2022-07-31T13:48:51;24.10;64.20
69932;DHT22;57243;52.064;5.116;2022-07-31T13:51:17;24.10;64.40
69932;DHT22;57243;52.064;5.116;2022-07-31T13:53:43;24.10;64.70
69932;DHT22;57243;52.064;5.116;2022-07-31T13:56:09;24.10;64.70
69932;DHT22;57243;52.064;5.116;2022-07-31T13:58:35;24.10;64.70
69932;DHT22;57243;52.064;5.116;2022-07-31T14:01:02;24.10;64.80
69932;DHT22;57243;52.064;5.116;2022-07-31T14:03:28;24.10;64.90
69932;DHT22;57243;52.064;5.116;2022-07-31T14:05:54;24.10;65.20
69932;DHT22;57243;52.064;5.116;2022-07-31T14:08:20;24.10;65.20
69932;DHT22;57243;52.064;5.116;2022-07-31T14:10:47;24.10;65.40
69932;DHT22;57243;52.064;5.116;2022-07-31T14:13:13;24.10;65.70
69932;DHT22;57243;52.064;5.116;2022-07-31T14:15:39;24.10;66.10
69932;DHT22;57243;52.064;5.116;2022-07-31T14:18:05;24.10;66.50
69932;DHT22;57243;52.064;5.116;2022-07-31T14:20:32;24.00;66.80
69932;DHT22;57243;52.064;5.116;2022-07-31T14:22:59;24.00;66.80
69932;DHT22;57243;52.064;5.116;2022-07-31T14:25:30;24.00;67.10
69932;DHT22;57243;52.064;5.116;2022-07-31T14:27:57;23.90;67.20
69932;DHT22;57243;52.064;5.116;2022-07-31T14:30:23;23.90;67.40
69932;DHT22;57243;52.064;5.116;2022-07-31T14:32:49;23.90;67.50
69932;DHT22;57243;52.064;5.116;2022-07-31T14:35:15;23.90;68.20
69932;DHT22;57243;52.064;5.116;2022-07-31T14:37:41;24.00;68.00
69932;DHT22;57243;52.064;5.116;2022-07-31T14:40:08;23.90;68.00
69932;DHT22;57243;52.064;5.116;2022-07-31T14:42:36;23.90;68.20
69932;DHT22;57243;52.064;5.116;2022-07-31T14:45:03;23.90;68.20
69932;DHT22;57243;52.064;5.116;2022-07-31T14:47:33;23.90;68.30
69932;DHT22;57243;52.064;5.116;2022-07-31T14:49:59;23.90;68.10
69932;DHT22;57243;52.064;5.116;2022-07-31T14:52:24;23.90;68.30
69932;DHT22;57243;52.064;5.116;2022-07-31T14:54:50;23.90;68.10
69932;DHT22;57243;52.064;5.116;2022-07-31T14:57:19;23.90;68.00
69932;DHT22;57243;52.064;5.116;2022-07-31T14:59:44;23.90;67.90
69932;DHT22;57243;52.064;5.116;2022-07-31T15:02:10;24.00;67.90
69932;DHT22;57243;52.064;5.116;2022-07-31T15:04:36;24.00;67.50
69932;DHT22;57243;52.064;5.116;2022-07-31T15:07:03;24.10;67.40
69932;DHT22;57243;52.064;5.116;2022-07-31T15:09:30;24.20;66.60
69932;DHT22;57243;52.064;5.116;2022-07-31T15:11:56;24.20;67.10
69932;DHT22;57243;52.064;5.116;2022-07-31T15:14:22;24.20;66.10
69932;DHT22;57243;52.064;5.116;2022-07-31T15:16:48;24.20;66.40
69932;DHT22;57243;52.064;5.116;2022-07-31T15:19:13;24.20;66.30
69932;DHT22;57243;52.064;5.116;2022-07-31T15:21:40;24.30;66.20
69932;DHT22;57243;52.064;5.116;2022-07-31T15:24:06;24.30;66.10
69932;DHT22;57243;52.064;5.116;2022-07-31T15:26:32;24.30;65.90
69932;DHT22;57243;52.064;5.116;2022-07-31T15:28:57;24.30;66.40
69932;DHT22;57243;52.064;5.116;2022-07-31T15:31:23;24.30;66.50
69932;DHT22;57243;52.064;5.116;2022-07-31T15:33:49;24.30;66.80
69932;DHT22;57243;52.064;5.116;2022-07-31T15:36:16;24.30;66.40
69932;DHT22;57243;52.064;5.116;2022-07-31T15:38:41;24.30;66.50
69932;DHT22;57243;52.064;5.116;2022-07-31T15:41:07;24.30;66.40
69932;DHT22;57243;52.064;5.116;2022-07-31T15:43:34;24.30;66.60
69932;DHT22;57243;52.064;5.116;2022-07-31T15:46:05;24.30;66.70
69932;DHT22;57243;52.064;5.116;2022-07-31T15:48:31;24.30;66.40